createdAt,value
2023-04-10T00:02:00.521Z,102031.78
2023-04-10T00:04:28.525Z,102026.00
2023-04-10T00:06:55.414Z,102021.16
2023-04-10T00:09:21.903Z,102022.53
2023-04-10T00:11:48.427Z,102018.72
2023-04-10T00:14:14.877Z,102015.94
2023-04-10T00:16:41.352Z,102014.88
2023-04-10T00:19:08.125Z,102010.63
2023-04-10T00:21:34.538Z,102011.13
2023-04-10T00:24:00.982Z,102010.59
2023-04-10T00:26:27.545Z,102002.72
2023-04-10T00:28:54.037Z,101994.78
2023-04-10T00:31:20.734Z,101994.78
2023-04-10T00:33:47.298Z,101987.78
2023-04-10T00:36:13.797Z,101988.88
2023-04-10T00:38:40.409Z,101988.66
2023-04-10T00:41:07.192Z,101983.50
2023-04-10T00:43:33.719Z,101981.59
2023-04-10T00:46:00.750Z,101984.50
2023-04-10T00:48:27.735Z,101980.44
2023-04-10T00:50:54.229Z,101981.03
2023-04-10T00:53:22.005Z,101973.66
2023-04-10T00:55:50.187Z,101974.78
2023-04-10T00:58:16.799Z,101978.94
2023-04-10T01:00:43.220Z,101978.88
2023-04-10T01:03:11.689Z,101978.56
2023-04-10T01:06:19.830Z,101976.63
2023-04-10T01:08:52.256Z,101979.16
2023-04-10T01:11:56.285Z,101977.63
2023-04-10T01:14:47.651Z,101991.00
2023-04-10T01:17:21.875Z,101991.53
2023-04-10T01:20:02.040Z,101989.94
2023-04-10T01:22:41.700Z,101984.75
2023-04-10T01:25:19.280Z,101990.19
2023-04-10T01:28:13.124Z,101990.19
2023-04-10T01:30:41.055Z,101991.25
2023-04-10T01:33:12.770Z,101990.13
2023-04-10T01:35:43.340Z,101987.94
2023-04-10T01:38:11.999Z,101987.16
2023-04-10T01:40:39.818Z,101990.41
2023-04-10T01:43:10.302Z,101999.88
2023-04-10T01:45:38.397Z,101990.66
2023-04-10T01:48:05.450Z,101994.16
2023-04-10T01:50:32.792Z,101986.25
2023-04-10T01:53:00.908Z,101997.31
2023-04-10T01:55:27.740Z,101994.97
2023-04-10T01:57:54.638Z,101987.28
2023-04-10T02:00:21.169Z,101984.69
2023-04-10T02:02:47.778Z,101987.41
2023-04-10T02:05:16.513Z,101994.50
2023-04-10T02:08:02.308Z,101991.47
2023-04-10T02:10:31.447Z,101992.03
2023-04-10T02:13:06.604Z,101993.09
2023-04-10T02:15:35.237Z,101992.28
2023-04-10T02:18:08.175Z,101997.06
2023-04-10T02:20:34.680Z,101999.22
2023-04-10T02:23:03.718Z,101986.72
2023-04-10T02:25:34.461Z,101995.91
2023-04-10T02:28:08.205Z,101993.47
2023-04-10T02:30:34.875Z,101992.41
2023-04-10T02:33:01.406Z,101994.88
2023-04-10T02:35:29.144Z,101994.41
2023-04-10T02:37:55.673Z,101994.38
2023-04-10T02:40:22.205Z,101991.72
2023-04-10T02:42:48.639Z,101990.13
2023-04-10T02:45:15.349Z,102006.66
2023-04-10T02:47:42.392Z,101991.28
2023-04-10T02:50:09.320Z,102000.22
2023-04-10T02:52:35.726Z,101994.28
2023-04-10T02:55:02.136Z,101995.63
2023-04-10T02:57:28.829Z,101994.25
2023-04-10T02:59:55.807Z,101999.13
2023-04-10T03:02:22.350Z,101995.91
2023-04-10T03:04:48.807Z,101996.16
2023-04-10T03:07:15.451Z,101992.66
2023-04-10T03:09:41.888Z,101990.19
2023-04-10T03:12:08.279Z,101990.19
2023-04-10T03:14:34.830Z,101991.81
2023-04-10T03:17:01.196Z,101993.16
2023-04-10T03:19:28.043Z,101999.94
2023-04-10T03:21:54.543Z,101995.09
2023-04-10T03:24:21.165Z,101993.44
2023-04-10T03:26:47.544Z,101986.38
2023-04-10T03:29:18.760Z,101990.19
2023-04-10T03:31:45.975Z,101987.50
2023-04-10T03:34:12.467Z,101982.63
2023-04-10T03:36:38.900Z,101982.88
2023-04-10T03:39:05.830Z,101979.59
2023-04-10T03:41:32.307Z,101977.09
2023-04-10T03:43:58.792Z,101980.00
2023-04-10T03:46:25.313Z,101978.66
2023-04-10T03:48:53.810Z,101979.19
2023-04-10T03:51:20.566Z,101974.31
2023-04-10T03:53:47.108Z,101967.56
2023-04-10T03:56:13.548Z,101969.94
2023-04-10T03:58:40.133Z,101967.81
2023-04-10T04:01:07.633Z,101968.38
2023-04-10T04:03:34.399Z,101973.34
2023-04-10T04:06:01.178Z,101977.69
2023-04-10T04:08:27.608Z,101979.59
2023-04-10T04:10:54.012Z,101974.16
2023-04-10T04:13:20.474Z,101966.78
2023-04-10T04:15:47.786Z,101962.97
2023-04-10T04:18:14.288Z,101972.72
2023-04-10T04:20:40.963Z,101970.28
2023-04-10T04:23:07.340Z,101973.88
2023-04-10T04:25:33.774Z,101968.41
2023-04-10T04:28:01.117Z,101967.38
2023-04-10T04:30:27.541Z,101971.97
2023-04-10T04:32:53.999Z,101979.81
2023-04-10T04:35:20.820Z,101974.97
2023-04-10T04:37:47.285Z,101972.56
2023-04-10T04:40:13.737Z,101972.31
2023-04-10T04:42:40.278Z,101975.28
2023-04-10T04:45:07.622Z,101984.72
2023-04-10T04:47:34.110Z,101976.06
2023-04-10T04:50:00.606Z,101977.97
2023-04-10T04:52:27.516Z,101967.69
2023-04-10T04:54:53.958Z,101971.69
2023-04-10T04:57:20.565Z,101969.47
2023-04-10T04:59:46.954Z,101963.22
2023-04-10T05:02:13.446Z,101966.81
2023-04-10T05:04:39.922Z,101962.78
2023-04-10T05:07:06.301Z,101963.06
2023-04-10T05:09:32.669Z,101962.53
2023-04-10T05:11:59.108Z,101968.50
2023-04-10T05:14:25.607Z,101965.25
2023-04-10T05:16:52.151Z,101965.28
2023-04-10T05:19:18.625Z,101961.50
2023-04-10T05:21:45.190Z,101963.38
2023-04-10T05:24:11.848Z,101953.09
2023-04-10T05:26:38.361Z,101955.53
2023-04-10T05:29:05.093Z,101959.31
2023-04-10T05:31:31.549Z,101958.75
2023-04-10T05:33:58.091Z,101960.34
2023-04-10T05:36:24.526Z,101956.59
2023-04-10T05:38:51.113Z,101949.53
2023-04-10T05:41:17.534Z,101952.50
2023-04-10T05:43:43.902Z,101951.16
2023-04-10T05:46:11.699Z,101954.66
2023-04-10T05:48:38.886Z,101949.78
2023-04-10T05:51:05.655Z,101954.34
2023-04-10T05:53:32.210Z,101948.91
2023-04-10T05:55:59.585Z,101951.63
2023-04-10T05:58:26.880Z,101950.78
2023-04-10T06:00:53.274Z,101952.06
2023-04-10T06:03:20.168Z,101952.06
2023-04-10T06:05:46.860Z,101954.47
2023-04-10T06:08:13.342Z,101959.78
2023-04-10T06:10:40.858Z,101957.84
2023-04-10T06:13:09.828Z,101955.63
2023-04-10T06:15:37.583Z,101960.75
2023-04-10T06:18:04.189Z,101962.84
2023-04-10T06:20:30.686Z,101950.63
2023-04-10T06:22:58.931Z,101952.72
2023-04-10T06:25:25.393Z,101944.03
2023-04-10T06:27:51.996Z,101949.38
2023-04-10T06:30:18.547Z,101948.22
2023-04-10T06:32:45.046Z,101953.06
2023-04-10T06:35:11.898Z,101945.97
2023-04-10T06:37:38.362Z,101952.44
2023-04-10T06:40:07.554Z,101954.28
2023-04-10T06:42:34.467Z,101953.09
2023-04-10T06:45:00.964Z,101953.28
2023-04-10T06:47:27.607Z,101955.59
2023-04-10T06:49:54.079Z,101958.75
2023-04-10T06:52:20.773Z,101955.03
2023-04-10T06:54:47.425Z,101960.09
2023-04-10T06:57:14.087Z,101950.22
2023-04-10T06:59:40.522Z,101944.94
2023-04-10T07:02:07.835Z,101953.78
2023-04-10T07:04:34.405Z,101955.50
2023-04-10T07:07:01.168Z,101954.84
2023-04-10T07:09:28.098Z,101956.13
2023-04-10T07:11:54.504Z,101959.97
2023-04-10T07:14:21.117Z,101955.56
2023-04-10T07:16:48.692Z,101959.06
2023-04-10T07:19:15.567Z,101960.09
2023-04-10T07:21:41.966Z,101952.03
2023-04-10T07:24:08.543Z,101950.59
2023-04-10T07:26:35.189Z,101952.34
2023-04-10T07:29:02.320Z,101951.34
2023-04-10T07:31:28.892Z,101955.31
2023-04-10T07:33:55.614Z,101945.34
2023-04-10T07:36:22.146Z,101938.97
2023-04-10T07:38:48.666Z,101944.75
2023-04-10T07:41:15.303Z,101939.75
2023-04-10T07:43:41.691Z,101935.31
2023-04-10T07:46:08.224Z,101925.31
2023-04-10T07:48:34.695Z,101931.75
2023-04-10T07:51:01.332Z,101931.81
2023-04-10T07:53:27.861Z,101923.56
2023-04-10T07:55:54.370Z,101925.63
2023-04-10T07:58:21.343Z,101921.03
2023-04-10T08:00:47.964Z,101928.19
2023-04-10T08:03:15.956Z,101935.03
2023-04-10T08:05:42.618Z,101939.13
2023-04-10T08:08:09.118Z,101937.28
2023-04-10T08:10:39.221Z,101925.09
2023-04-10T08:13:06.115Z,101928.06
2023-04-10T08:15:32.580Z,101924.56
2023-04-10T08:17:59.048Z,101927.69
2023-04-10T08:20:25.715Z,101928.47
2023-04-10T08:22:52.204Z,101924.34
2023-04-10T08:25:18.659Z,101919.69
2023-04-10T08:27:45.063Z,101916.16
2023-04-10T08:30:11.871Z,101922.97
2023-04-10T08:32:38.916Z,101927.78
2023-04-10T08:35:05.944Z,101916.81
2023-04-10T08:37:32.367Z,101914.22
2023-04-10T08:39:58.880Z,101910.38
2023-04-10T08:42:26.223Z,101907.63
2023-04-10T08:44:52.707Z,101909.88
2023-04-10T08:47:21.637Z,101908.91
2023-04-10T08:50:03.850Z,101907.25
2023-04-10T08:52:34.268Z,101910.47
2023-04-10T08:55:05.966Z,101907.56
2023-04-10T08:57:33.047Z,101906.91
2023-04-10T09:02:46.814Z,101907.84
2023-04-10T09:05:13.654Z,101912.81
2023-04-10T09:07:40.578Z,101896.66
2023-04-10T09:10:07.830Z,101896.97
2023-04-10T09:12:47.850Z,101905.78
2023-04-10T09:15:15.285Z,101907.03
2023-04-10T09:18:11.077Z,101897.00
2023-04-10T09:20:37.613Z,101902.31
2023-04-10T09:23:21.404Z,101901.47
2023-04-10T09:25:49.310Z,101907.88
2023-04-10T09:28:17.179Z,101902.53
2023-04-10T09:30:43.754Z,101904.88
2023-04-10T09:33:27.885Z,101908.91
2023-04-10T09:35:57.265Z,101903.38
2023-04-10T09:38:23.820Z,101901.06
2023-04-10T09:40:50.786Z,101902.94
2023-04-10T09:43:23.042Z,101894.34
2023-04-10T09:45:54.476Z,101887.44
2023-04-10T09:48:22.382Z,101891.88
2023-04-10T09:50:49.223Z,101884.66
2023-04-10T09:53:19.464Z,101881.91
2023-04-10T09:55:49.976Z,101873.88
2023-04-10T09:58:18.880Z,101882.75
2023-04-10T10:00:46.985Z,101876.78
2023-04-10T10:03:18.617Z,101874.97
2023-04-10T10:05:48.306Z,101879.13
2023-04-10T10:08:17.165Z,101869.28
2023-04-10T10:10:53.354Z,101867.78
2023-04-10T10:13:37.438Z,101863.28
2023-04-10T10:16:18.202Z,101851.97
2023-04-10T10:18:52.253Z,101855.25
2023-04-10T10:21:20.815Z,101845.50
2023-04-10T10:23:53.808Z,101839.19
2023-04-10T10:26:23.667Z,101835.78
2023-04-10T10:28:53.175Z,101836.09
2023-04-10T10:31:22.490Z,101832.22
2023-04-10T10:33:52.466Z,101827.91
2023-04-10T10:36:20.294Z,101834.44
2023-04-10T10:39:09.573Z,101829.63
2023-04-10T10:41:49.605Z,101830.44
2023-04-10T10:44:23.328Z,101826.06
2023-04-10T10:47:04.426Z,101822.31
2023-04-10T10:50:03.672Z,101818.88
2023-04-10T10:52:43.854Z,101818.66
2023-04-10T10:55:22.216Z,101807.03
2023-04-10T10:57:56.265Z,101801.41
2023-04-10T11:00:24.585Z,101791.22
2023-04-10T11:03:09.408Z,101795.34
2023-04-10T11:05:51.599Z,101789.84
2023-04-10T11:08:47.091Z,101789.25
2023-04-10T11:11:23.372Z,101782.97
2023-04-10T11:13:49.769Z,101781.09
2023-04-10T11:16:16.398Z,101786.38
2023-04-10T11:18:56.155Z,101767.34
2023-04-10T11:21:34.100Z,101768.06
2023-04-10T11:24:00.607Z,101766.44
2023-04-10T11:26:43.680Z,101757.03
2023-04-10T11:29:16.046Z,101755.88
2023-04-10T11:31:44.325Z,101756.13
2023-04-10T11:34:11.229Z,101749.44
2023-04-10T11:36:42.246Z,101742.56
2023-04-10T11:39:12.983Z,101747.75
2023-04-10T11:41:41.621Z,101753.47
2023-04-10T11:44:22.579Z,101742.94
2023-04-10T11:46:51.018Z,101738.19
2023-04-10T11:49:23.654Z,101736.97
2023-04-10T11:51:51.202Z,101739.47
2023-04-10T11:54:22.849Z,101744.06
2023-04-10T11:56:59.948Z,101734.06
2023-04-10T11:59:26.981Z,101741.03
2023-04-10T12:02:02.978Z,101733.47
2023-04-10T12:04:29.652Z,101727.25
2023-04-10T12:06:57.365Z,101726.94
2023-04-10T12:09:24.168Z,101715.31
2023-04-10T12:11:53.944Z,101705.44
2023-04-10T12:14:22.265Z,101702.22
2023-04-10T12:16:52.803Z,101704.06
2023-04-10T12:19:20.594Z,101697.06
2023-04-10T12:21:47.675Z,101695.34
2023-04-10T12:25:01.286Z,101703.03
2023-04-10T12:27:28.810Z,101695.25
2023-04-10T12:29:57.021Z,101686.75
2023-04-10T12:32:27.159Z,101686.47
2023-04-10T12:34:58.498Z,101669.25
2023-04-10T12:37:45.997Z,101665.69
2023-04-10T12:40:13.318Z,101661.53
2023-04-10T12:42:41.974Z,101664.28
2023-04-10T12:45:10.035Z,101659.22
2023-04-10T12:47:48.963Z,101654.06
2023-04-10T12:50:16.985Z,101647.16
2023-04-10T12:52:46.009Z,101643.22
2023-04-10T12:55:12.612Z,101637.28
2023-04-10T12:57:43.569Z,101628.41
2023-04-10T13:00:12.561Z,101625.31
2023-04-10T13:02:39.647Z,101628.16
2023-04-10T13:05:07.633Z,101630.56
2023-04-10T13:07:34.263Z,101629.19
2023-04-10T13:10:00.817Z,101619.78
2023-04-10T13:12:28.886Z,101621.16
2023-04-10T13:14:55.498Z,101616.09
2023-04-10T13:17:25.414Z,101605.84
2023-04-10T13:19:52.486Z,101593.47
2023-04-10T13:22:19.709Z,101601.84
2023-04-10T13:24:46.378Z,101597.22
2023-04-10T13:27:13.134Z,101588.44
2023-04-10T13:29:41.956Z,101580.63
2023-04-10T13:32:09.049Z,101570.75
2023-04-10T13:34:35.951Z,101567.28
2023-04-10T13:37:02.965Z,101564.25
2023-04-10T13:39:31.218Z,101558.56
2023-04-10T13:41:59.122Z,101563.81
2023-04-10T13:44:25.741Z,101554.09
2023-04-10T13:46:52.384Z,101563.28
2023-04-10T13:49:20.247Z,101548.94
2023-04-10T13:51:47.275Z,101562.66
2023-04-10T13:54:16.868Z,101549.84
2023-04-10T13:56:47.874Z,101550.09
2023-04-10T13:59:14.379Z,101538.09
2023-04-10T14:01:41.002Z,101539.06
2023-04-10T14:04:07.591Z,101530.78
2023-04-10T14:06:34.528Z,101521.28
2023-04-10T14:09:01.139Z,101530.34
2023-04-10T14:11:27.740Z,101526.44
2023-04-10T14:13:54.400Z,101516.81
2023-04-10T14:16:21.787Z,101504.94
2023-04-10T14:18:48.433Z,101510.97
2023-04-10T14:21:15.020Z,101500.91
2023-04-10T14:23:42.590Z,101501.88
2023-04-10T14:26:09.456Z,101500.84
2023-04-10T14:28:36.270Z,101493.53
2023-04-10T14:31:05.198Z,101491.66
2023-04-10T14:33:32.149Z,101478.78
2023-04-10T14:35:58.801Z,101474.66
2023-04-10T14:38:25.288Z,101469.09
2023-04-10T14:40:52.183Z,101463.28
2023-04-10T14:43:19.384Z,101456.63
2023-04-10T14:45:45.929Z,101441.84
2023-04-10T14:48:12.926Z,101443.81
2023-04-10T14:50:39.921Z,101437.00
2023-04-10T14:53:09.416Z,101440.81
2023-04-10T14:55:36.852Z,101441.56
2023-04-10T14:58:04.054Z,101431.44
2023-04-10T15:00:30.528Z,101427.88
2023-04-10T15:02:57.469Z,101422.13
2023-04-10T15:05:25.884Z,101416.34
2023-04-10T15:07:52.389Z,101405.53
2023-04-10T15:10:19.244Z,101405.44
2023-04-10T15:12:45.689Z,101399.06
2023-04-10T15:15:12.104Z,101401.91
2023-04-10T15:17:38.716Z,101390.94
2023-04-10T15:20:05.813Z,101389.63
2023-04-10T15:22:32.353Z,101383.91
2023-04-10T15:24:59.135Z,101380.63
2023-04-10T15:27:25.624Z,101374.53
2023-04-10T15:29:52.091Z,101358.84
2023-04-10T15:32:18.724Z,101363.22
2023-04-10T15:34:45.306Z,101350.53
2023-04-10T15:37:11.974Z,101350.53
2023-04-10T15:39:38.629Z,101354.28
2023-04-10T15:42:06.092Z,101348.25
2023-04-10T15:44:32.802Z,101338.44
2023-04-10T15:46:59.949Z,101334.91
2023-04-10T15:49:36.132Z,101339.50
2023-04-10T15:52:05.982Z,101338.72
2023-04-10T15:54:36.324Z,101331.94
2023-04-10T15:57:03.771Z,101322.72
2023-04-10T15:59:31.031Z,101320.47
2023-04-10T16:01:57.629Z,101308.94
2023-04-10T16:04:24.446Z,101307.88
2023-04-10T16:06:51.116Z,101303.78
2023-04-10T16:09:25.310Z,101291.78
2023-04-10T16:11:53.483Z,101295.00
2023-04-10T16:14:20.038Z,101287.63
2023-04-10T16:16:46.607Z,101288.41
2023-04-10T16:19:13.169Z,101287.25
2023-04-10T16:21:40.020Z,101283.34
2023-04-10T16:24:06.802Z,101276.66
2023-04-10T16:26:33.316Z,101270.09
2023-04-10T16:28:59.738Z,101266.81
2023-04-10T16:31:26.319Z,101255.69
2023-04-10T16:33:52.952Z,101258.03
2023-04-10T16:36:19.427Z,101258.97
2023-04-10T16:38:49.544Z,101257.59
2023-04-10T16:41:18.263Z,101247.59
2023-04-10T16:43:44.806Z,101235.63
2023-04-10T16:46:11.333Z,101232.78
2023-04-10T16:48:38.335Z,101227.13
2023-04-10T16:51:06.682Z,101220.75
2023-04-10T16:53:35.686Z,101216.00
2023-04-10T16:56:04.492Z,101207.31
2023-04-10T16:58:32.975Z,101203.41
2023-04-10T17:00:59.542Z,101199.19
2023-04-10T17:03:26.146Z,101196.94
2023-04-10T17:05:52.574Z,101185.03
2023-04-10T17:08:18.959Z,101179.03
2023-04-10T17:10:45.503Z,101177.78
2023-04-10T17:13:12.072Z,101173.63
2023-04-10T17:15:38.501Z,101161.50
2023-04-10T17:18:05.055Z,101159.44
2023-04-10T17:20:35.916Z,101152.22
2023-04-10T17:23:02.782Z,101153.28
2023-04-10T17:25:29.272Z,101150.72
2023-04-10T17:27:57.025Z,101151.25
2023-04-10T17:30:23.584Z,101153.19
2023-04-10T17:32:50.075Z,101147.69
2023-04-10T17:35:16.658Z,101146.38
2023-04-10T17:37:43.109Z,101141.94
2023-04-10T17:40:10.903Z,101139.91
2023-04-10T17:42:37.401Z,101129.00
2023-04-10T17:45:04.138Z,101120.53
2023-04-10T17:47:30.709Z,101118.50
2023-04-10T17:49:57.300Z,101113.97
2023-04-10T17:52:23.946Z,101115.03
2023-04-10T17:54:50.451Z,101108.66
2023-04-10T17:57:17.039Z,101110.06
2023-04-10T17:59:43.604Z,101100.00
2023-04-10T18:02:10.116Z,101101.75
2023-04-10T18:04:37.027Z,101098.13
2023-04-10T18:07:03.432Z,101094.38
2023-04-10T18:09:29.933Z,101089.47
2023-04-10T18:11:56.352Z,101093.06
2023-04-10T18:14:22.832Z,101085.28
2023-04-10T18:16:49.408Z,101077.88
2023-04-10T18:19:15.900Z,101078.75
2023-04-10T18:21:42.310Z,101066.69
2023-04-10T18:24:12.189Z,101067.84
2023-04-10T18:26:38.672Z,101061.25
2023-04-10T18:29:05.350Z,101060.91
2023-04-10T18:31:32.099Z,101058.16
2023-04-10T18:34:07.041Z,101055.53
2023-04-10T18:36:33.996Z,101045.16
2023-04-10T18:39:00.497Z,101039.44
2023-04-10T18:41:27.052Z,101041.38
2023-04-10T18:44:01.677Z,101033.34
2023-04-10T18:46:32.448Z,101021.13
2023-04-10T18:49:00.986Z,101014.94
2023-04-10T18:51:28.034Z,101007.72
2023-04-10T18:53:54.719Z,101002.13
2023-04-10T18:56:21.509Z,100990.34
2023-04-10T18:58:49.876Z,100989.75
2023-04-10T19:01:17.628Z,100986.66
2023-04-10T19:03:47.833Z,100986.22
2023-04-10T19:06:17.255Z,100976.59
2023-04-10T19:08:43.811Z,100972.50
2023-04-10T19:11:10.471Z,100972.94
2023-04-10T19:13:36.980Z,100978.44
2023-04-10T19:16:04.560Z,100972.19
2023-04-10T19:18:31.490Z,100970.91
2023-04-10T19:20:59.161Z,100963.84
2023-04-10T19:23:26.519Z,100964.19
2023-04-10T19:25:54.631Z,100955.59
2023-04-10T19:28:23.312Z,100959.59
2023-04-10T19:30:50.068Z,100954.69
2023-04-10T19:33:17.245Z,100954.81
2023-04-10T19:35:43.820Z,100949.78
2023-04-10T19:38:10.522Z,100939.84
2023-04-10T19:40:37.292Z,100937.09
2023-04-10T19:43:04.050Z,100926.38
2023-04-10T19:45:32.255Z,100921.44
2023-04-10T19:47:58.948Z,100910.34
2023-04-10T19:50:28.250Z,100906.13
2023-04-10T19:52:54.716Z,100901.09
2023-04-10T19:55:21.275Z,100896.38
2023-04-10T19:57:48.092Z,100895.06
2023-04-10T20:00:14.880Z,100897.91
2023-04-10T20:02:41.709Z,100884.38
2023-04-10T20:05:08.821Z,100889.06
2023-04-10T20:07:35.766Z,100883.31
2023-04-10T20:10:04.270Z,100879.50
2023-04-10T20:12:33.166Z,100867.72
2023-04-10T20:15:04.134Z,100865.50
2023-04-10T20:17:31.156Z,100857.91
2023-04-10T20:19:57.702Z,100855.44
2023-04-10T20:22:24.417Z,100867.13
2023-04-10T20:24:50.985Z,100856.97
2023-04-10T20:27:17.763Z,100855.00
2023-04-10T20:29:44.308Z,100842.88
2023-04-10T20:32:10.808Z,100839.69
2023-04-10T20:34:37.300Z,100851.88
2023-04-10T20:37:05.751Z,100849.25
2023-04-10T20:39:33.225Z,100850.81
2023-04-10T20:41:59.888Z,100853.25
2023-04-10T20:44:26.407Z,100851.63
2023-04-10T20:46:52.863Z,100850.16
2023-04-10T20:49:19.397Z,100852.59
2023-04-10T20:51:47.098Z,100849.88
2023-04-10T20:54:13.627Z,100841.47
2023-04-10T20:56:43.432Z,100841.47
2023-04-10T20:59:10.695Z,100843.09
2023-04-10T21:01:37.373Z,100835.63
2023-04-10T21:04:04.177Z,100825.63
2023-04-10T21:06:33.209Z,100815.34
2023-04-10T21:08:59.639Z,100815.78
2023-04-10T21:11:27.190Z,100814.00
2023-04-10T21:13:54.242Z,100800.72
2023-04-10T21:16:21.091Z,100810.22
2023-04-10T21:18:47.778Z,100796.75
2023-04-10T21:21:14.546Z,100792.34
2023-04-10T21:23:41.263Z,100790.19
2023-04-10T21:26:07.971Z,100787.91
2023-04-10T21:28:34.450Z,100772.16
2023-04-10T21:31:00.872Z,100773.47
2023-04-10T21:33:27.378Z,100787.63
2023-04-10T21:35:53.866Z,100782.91
2023-04-10T21:38:20.420Z,100779.41
2023-04-10T21:40:53.984Z,100777.00
2023-04-10T21:43:21.333Z,100773.38
2023-04-10T21:45:47.935Z,100776.03
2023-04-10T21:48:14.467Z,100777.44
2023-04-10T21:50:41.989Z,100767.59
2023-04-10T21:53:08.422Z,100757.13
2023-04-10T21:55:34.964Z,100748.22
2023-04-10T21:58:01.384Z,100757.16
2023-04-10T22:00:28.757Z,100749.47
2023-04-10T22:02:55.832Z,100758.78
2023-04-10T22:05:24.248Z,100745.69
2023-04-10T22:07:50.965Z,100750.69
2023-04-10T22:10:17.688Z,100741.66
2023-04-10T22:12:45.957Z,100734.94
2023-04-10T22:15:14.527Z,100742.09
2023-04-10T22:17:41.079Z,100741.06
2023-04-10T22:20:07.859Z,100736.88
2023-04-10T22:22:34.302Z,100727.78
2023-04-10T22:25:00.752Z,100729.72
2023-04-10T22:27:27.193Z,100716.94
2023-04-10T22:30:02.723Z,100710.16
2023-04-10T22:32:30.405Z,100709.78
2023-04-10T22:34:58.706Z,100697.41
2023-04-10T22:37:25.186Z,100696.97
2023-04-10T22:39:51.636Z,100695.03
2023-04-10T22:42:18.031Z,100697.78
2023-04-10T22:44:45.435Z,100686.06
2023-04-10T22:47:12.018Z,100683.97
2023-04-10T22:49:38.418Z,100667.94
2023-04-10T22:52:05.004Z,100666.72
2023-04-10T22:54:31.522Z,100660.69
2023-04-10T22:56:57.929Z,100660.19
2023-04-10T22:59:24.462Z,100651.25
2023-04-10T23:01:51.428Z,100656.22
2023-04-10T23:04:18.036Z,100645.50
2023-04-10T23:06:44.525Z,100640.09
2023-04-10T23:09:10.968Z,100625.81
2023-04-10T23:11:37.421Z,100627.03
2023-04-10T23:14:03.881Z,100623.19
2023-04-10T23:16:30.348Z,100611.09
2023-04-10T23:18:57.144Z,100615.41
2023-04-10T23:21:23.738Z,100596.75
2023-04-10T23:23:50.161Z,100597.13
2023-04-10T23:26:16.550Z,100597.47
2023-04-10T23:28:42.944Z,100584.94
2023-04-10T23:31:09.605Z,100580.22
2023-04-10T23:33:36.022Z,100575.53
2023-04-10T23:36:02.585Z,100571.50
2023-04-10T23:38:29.176Z,100562.00
2023-04-10T23:40:55.616Z,100563.25
2023-04-10T23:43:22.256Z,100558.78
2023-04-10T23:45:48.746Z,100553.78
2023-04-10T23:48:15.267Z,100550.28
2023-04-10T23:50:41.752Z,100543.53
2023-04-10T23:53:11.821Z,100531.28
2023-04-10T23:55:39.576Z,100532.94
2023-04-10T23:58:06.081Z,100534.94
